createdAt,value
2018-11-22T00:00:48.805Z,812.10
2018-11-22T00:01:48.819Z,812.07
2018-11-22T00:02:48.820Z,812.11
2018-11-22T00:03:48.827Z,812.10
2018-11-22T00:04:48.836Z,812.12
2018-11-22T00:05:48.848Z,812.09
2018-11-22T00:06:48.857Z,812.08
2018-11-22T00:07:48.866Z,812.13
2018-11-22T00:08:48.867Z,812.12
2018-11-22T00:09:48.876Z,812.09
2018-11-22T00:10:48.886Z,812.17
2018-11-22T00:11:48.893Z,812.13
2018-11-22T00:12:48.902Z,812.15
2018-11-22T00:13:48.910Z,812.13
2018-11-22T00:14:48.922Z,812.15
2018-11-22T00:15:48.925Z,812.15
2018-11-22T00:16:48.933Z,812.16
2018-11-22T00:17:48.945Z,812.14
2018-11-22T00:18:48.948Z,812.13
2018-11-22T00:19:48.955Z,812.17
2018-11-22T00:20:48.961Z,812.11
2018-11-22T00:21:48.971Z,812.15
2018-11-22T00:22:48.982Z,812.13
2018-11-22T00:23:48.986Z,812.13
2018-11-22T00:24:49.001Z,812.10
2018-11-22T00:25:49.002Z,812.12
2018-11-22T00:26:49.008Z,812.15
2018-11-22T00:27:49.019Z,812.10
2018-11-22T00:28:49.024Z,812.18
2018-11-22T00:29:49.037Z,812.19
2018-11-22T00:30:49.040Z,812.18
2018-11-22T00:31:49.048Z,812.17
2018-11-22T00:32:49.057Z,812.20
2018-11-22T00:33:49.064Z,812.21
2018-11-22T00:34:49.073Z,812.21
2018-11-22T00:35:49.079Z,812.21
2018-11-22T00:36:49.094Z,812.16
2018-11-22T00:37:49.101Z,812.24
2018-11-22T00:38:49.106Z,812.25
2018-11-22T00:39:49.112Z,812.19
2018-11-22T00:40:49.120Z,812.21
2018-11-22T00:41:49.128Z,812.25
2018-11-22T00:42:49.140Z,812.21
2018-11-22T00:43:49.143Z,812.21
2018-11-22T00:44:49.151Z,812.23
2018-11-22T00:45:49.160Z,812.23
2018-11-22T00:46:49.168Z,812.20
2018-11-22T00:47:49.175Z,812.19
2018-11-22T00:48:49.185Z,812.21
2018-11-22T00:49:49.194Z,812.21
2018-11-22T00:50:49.199Z,812.18
2018-11-22T00:51:49.208Z,812.21
2018-11-22T00:52:49.215Z,812.20
2018-11-22T00:53:49.222Z,812.20
2018-11-22T00:54:49.233Z,812.22
2018-11-22T00:55:49.238Z,812.22
2018-11-22T00:56:49.246Z,812.18
2018-11-22T00:57:49.256Z,812.19
2018-11-22T00:58:49.263Z,812.18
2018-11-22T00:59:49.270Z,812.15
2018-11-22T01:00:49.282Z,812.18
2018-11-22T01:01:49.287Z,812.16
2018-11-22T01:02:49.298Z,812.15
2018-11-22T01:03:49.302Z,812.14
2018-11-22T01:04:49.310Z,812.17
2018-11-22T01:05:49.318Z,812.18
2018-11-22T01:06:49.333Z,812.18
2018-11-22T01:07:49.334Z,812.19
2018-11-22T01:08:49.341Z,812.15
2018-11-22T01:09:49.350Z,812.16
2018-11-22T01:10:49.356Z,812.15
2018-11-22T01:11:49.366Z,812.14
2018-11-22T01:12:49.376Z,812.13
2018-11-22T01:13:49.380Z,812.19
2018-11-22T01:14:49.387Z,812.21
2018-11-22T01:15:49.397Z,812.21
2018-11-22T01:16:49.408Z,812.25
2018-11-22T01:17:49.413Z,812.22
2018-11-22T01:18:49.421Z,812.25
2018-11-22T01:19:49.428Z,812.24
2018-11-22T01:20:49.438Z,812.27
2018-11-22T01:21:49.447Z,812.27
2018-11-22T01:22:49.456Z,812.27
2018-11-22T01:23:49.459Z,812.30
2018-11-22T01:24:49.468Z,812.31
2018-11-22T01:25:49.483Z,812.29
2018-11-22T01:26:49.484Z,812.32
2018-11-22T01:27:49.499Z,812.32
2018-11-22T01:28:49.499Z,812.33
2018-11-22T01:29:49.516Z,812.32
2018-11-22T01:30:49.517Z,812.35
2018-11-22T01:31:49.534Z,812.37
2018-11-22T01:32:49.532Z,812.38
2018-11-22T01:33:49.540Z,812.36
2018-11-22T01:34:49.548Z,812.37
2018-11-22T01:35:49.563Z,812.37
2018-11-22T01:36:49.564Z,812.33
2018-11-22T01:37:49.576Z,812.34
2018-11-22T01:38:49.580Z,812.36
2018-11-22T01:39:49.597Z,812.30
2018-11-22T01:40:49.594Z,812.30
2018-11-22T01:41:49.603Z,812.33
2018-11-22T01:42:49.610Z,812.29
2018-11-22T01:43:49.625Z,812.31
2018-11-22T01:44:49.624Z,812.26
2018-11-22T01:45:49.641Z,812.26
2018-11-22T01:46:49.643Z,812.28
2018-11-22T01:47:49.656Z,812.28
2018-11-22T01:48:49.657Z,812.30
2018-11-22T01:49:49.675Z,812.30
2018-11-22T01:50:49.677Z,812.26
2018-11-22T01:51:49.689Z,812.27
2018-11-22T01:52:49.690Z,812.23
2018-11-22T01:53:49.706Z,812.24
2018-11-22T01:54:49.706Z,812.26
2018-11-22T01:55:49.726Z,812.26
2018-11-22T01:56:49.722Z,812.26
2018-11-22T01:57:49.737Z,812.25
2018-11-22T01:58:49.738Z,812.26
2018-11-22T01:59:49.754Z,812.27
2018-11-22T02:00:49.753Z,812.24
2018-11-22T02:01:49.771Z,812.27
2018-11-22T02:02:49.772Z,812.24
2018-11-22T02:03:49.786Z,812.25
2018-11-22T02:04:49.788Z,812.26
2018-11-22T02:05:49.803Z,812.26
2018-11-22T02:06:49.800Z,812.25
2018-11-22T02:07:49.826Z,812.24
2018-11-22T02:08:49.820Z,812.22
2018-11-22T02:09:49.840Z,812.22
2018-11-22T02:10:49.836Z,812.24
2018-11-22T02:11:49.840Z,812.25
2018-11-22T02:12:49.851Z,812.23
2018-11-22T02:13:49.857Z,812.25
2018-11-22T02:14:49.867Z,812.27
2018-11-22T02:15:49.871Z,812.24
2018-11-22T02:16:49.888Z,812.26
2018-11-22T02:17:49.891Z,812.27
2018-11-22T02:18:49.900Z,812.26
2018-11-22T02:19:49.908Z,812.24
2018-11-22T02:20:49.914Z,812.30
2018-11-22T02:21:49.925Z,812.28
2018-11-22T02:22:49.931Z,812.30
2018-11-22T02:23:49.939Z,812.27
2018-11-22T02:24:49.945Z,812.26
2018-11-22T02:25:49.953Z,812.27
2018-11-22T02:26:49.972Z,812.28
2018-11-22T02:27:49.971Z,812.30
2018-11-22T02:28:49.976Z,812.27
2018-11-22T02:29:49.985Z,812.25
2018-11-22T02:30:49.993Z,812.27
2018-11-22T02:31:50.004Z,812.30
2018-11-22T02:32:50.014Z,812.28
2018-11-22T02:33:50.017Z,812.28
2018-11-22T02:34:50.027Z,812.30
2018-11-22T02:35:50.034Z,812.31
2018-11-22T02:36:50.043Z,812.27
2018-11-22T02:37:50.049Z,812.29
2018-11-22T02:38:50.058Z,812.30
2018-11-22T02:39:50.066Z,812.31
2018-11-22T02:40:50.078Z,812.31
2018-11-22T02:41:50.084Z,812.32
2018-11-22T02:42:50.093Z,812.32
2018-11-22T02:43:50.097Z,812.35
2018-11-22T02:44:50.111Z,812.34
2018-11-22T02:45:50.115Z,812.32
2018-11-22T02:46:50.122Z,812.36
2018-11-22T02:47:50.128Z,812.32
2018-11-22T02:48:50.139Z,812.35
2018-11-22T02:49:50.155Z,812.34
2018-11-22T02:50:50.157Z,812.36
2018-11-22T02:51:50.162Z,812.34
2018-11-22T02:52:50.169Z,812.36
2018-11-22T02:53:50.181Z,812.33
2018-11-22T02:54:50.188Z,812.28
2018-11-22T02:55:50.197Z,812.34
2018-11-22T02:56:50.202Z,812.35
2018-11-22T02:57:50.212Z,812.35
2018-11-22T02:58:50.219Z,812.34
2018-11-22T02:59:50.226Z,812.34
2018-11-22T03:00:50.235Z,812.33
2018-11-22T03:01:50.243Z,812.34
2018-11-22T03:02:50.252Z,812.35
2018-11-22T03:03:50.262Z,812.37
2018-11-22T03:04:50.268Z,812.34
2018-11-22T03:05:50.277Z,812.34
2018-11-22T03:06:50.286Z,812.35
2018-11-22T03:07:50.291Z,812.30
2018-11-22T03:08:50.300Z,812.34
2018-11-22T03:09:50.309Z,812.29
2018-11-22T03:10:50.315Z,812.30
2018-11-22T03:11:50.322Z,812.29
2018-11-22T03:12:50.331Z,812.30
2018-11-22T03:13:50.339Z,812.27
2018-11-22T03:14:50.349Z,812.28
2018-11-22T03:15:50.359Z,812.27
2018-11-22T03:16:50.365Z,812.28
2018-11-22T03:17:50.375Z,812.31
2018-11-22T03:18:50.383Z,812.28
2018-11-22T03:19:50.387Z,812.30
2018-11-22T03:20:50.394Z,812.31
2018-11-22T03:21:50.404Z,812.31
2018-11-22T03:22:50.413Z,812.31
2018-11-22T03:23:50.422Z,812.32
2018-11-22T03:24:50.428Z,812.31
2018-11-22T03:25:50.443Z,812.31
2018-11-22T03:26:50.447Z,812.32
2018-11-22T03:27:50.455Z,812.30
2018-11-22T03:28:50.461Z,812.31
2018-11-22T03:29:50.473Z,812.30
2018-11-22T03:30:50.478Z,812.33
2018-11-22T03:31:50.495Z,812.29
2018-11-22T03:32:50.496Z,812.34
2018-11-22T03:33:50.503Z,812.35
2018-11-22T03:34:50.512Z,812.30
2018-11-22T03:35:50.517Z,812.32
2018-11-22T03:36:50.527Z,812.32
2018-11-22T03:37:50.536Z,812.35
2018-11-22T03:38:50.543Z,812.30
2018-11-22T03:39:50.548Z,812.30
2018-11-22T03:40:50.557Z,812.32
2018-11-22T03:41:50.565Z,812.25
2018-11-22T03:42:50.577Z,812.28
2018-11-22T03:43:50.580Z,812.32
2018-11-22T03:44:50.590Z,812.32
2018-11-22T03:45:50.600Z,812.33
2018-11-22T03:46:50.608Z,812.33
2018-11-22T03:47:50.614Z,812.35
2018-11-22T03:48:50.621Z,812.33
2018-11-22T03:49:50.633Z,812.36
2018-11-22T03:50:50.638Z,812.38
2018-11-22T03:51:50.646Z,812.41
2018-11-22T03:52:50.654Z,812.43
2018-11-22T03:53:50.663Z,812.46
2018-11-22T03:54:50.672Z,812.47
2018-11-22T03:55:50.679Z,812.50
2018-11-22T03:56:50.687Z,812.51
2018-11-22T03:57:50.696Z,812.51
2018-11-22T03:58:50.702Z,812.49
2018-11-22T03:59:50.709Z,812.53
2018-11-22T04:00:50.719Z,812.55
2018-11-22T04:01:50.729Z,812.57
2018-11-22T04:02:50.736Z,812.55
2018-11-22T04:03:50.744Z,812.57
2018-11-22T04:04:50.757Z,812.53
2018-11-22T04:05:50.759Z,812.54
2018-11-22T04:06:50.770Z,812.55
2018-11-22T04:07:50.775Z,812.53
2018-11-22T04:08:50.783Z,812.56
2018-11-22T04:09:50.793Z,812.51
2018-11-22T04:10:50.801Z,812.47
2018-11-22T04:11:50.810Z,812.48
2018-11-22T04:12:50.821Z,812.46
2018-11-22T04:13:50.824Z,812.47
2018-11-22T04:14:50.832Z,812.48
2018-11-22T04:15:50.839Z,812.45
2018-11-22T04:16:50.848Z,812.49
2018-11-22T04:17:50.857Z,812.48
2018-11-22T04:18:50.865Z,812.43
2018-11-22T04:19:50.883Z,812.47
2018-11-22T04:20:50.881Z,812.46
2018-11-22T04:21:50.889Z,812.44
2018-11-22T04:22:50.900Z,812.45
2018-11-22T04:23:50.908Z,812.45
2018-11-22T04:24:50.917Z,812.46
2018-11-22T04:25:50.926Z,812.44
2018-11-22T04:26:50.928Z,812.43
2018-11-22T04:27:50.942Z,812.42
2018-11-22T04:28:50.946Z,812.38
2018-11-22T04:29:50.958Z,812.39
2018-11-22T04:30:50.964Z,812.39
2018-11-22T04:31:50.973Z,812.39
2018-11-22T04:32:50.982Z,812.37
2018-11-22T04:33:50.990Z,812.37
2018-11-22T04:34:50.995Z,812.39
2018-11-22T04:35:51.005Z,812.43
2018-11-22T04:36:51.012Z,812.44
2018-11-22T04:37:51.020Z,812.46
2018-11-22T04:38:51.034Z,812.45
2018-11-22T04:39:51.036Z,812.41
2018-11-22T04:40:51.044Z,812.44
2018-11-22T04:41:51.054Z,812.41
2018-11-22T04:42:51.061Z,812.45
2018-11-22T04:43:51.073Z,812.39
2018-11-22T04:44:51.078Z,812.43
2018-11-22T04:45:51.085Z,812.41
2018-11-22T04:46:51.100Z,812.41
2018-11-22T04:47:51.103Z,812.38
2018-11-22T04:48:51.112Z,812.39
2018-11-22T04:49:51.118Z,812.47
2018-11-22T04:50:51.128Z,812.49
2018-11-22T04:51:51.140Z,812.45
2018-11-22T04:52:51.141Z,812.48
2018-11-22T04:53:51.151Z,812.43
2018-11-22T04:54:51.161Z,812.42
2018-11-22T04:55:51.167Z,812.43
2018-11-22T04:56:51.178Z,812.43
2018-11-22T04:57:51.183Z,812.41
2018-11-22T04:58:51.191Z,812.42
2018-11-22T04:59:51.200Z,812.42
2018-11-22T05:00:51.207Z,812.46
2018-11-22T05:01:51.216Z,812.47
2018-11-22T05:02:51.224Z,812.47
2018-11-22T05:03:51.234Z,812.45
2018-11-22T05:04:51.239Z,812.45
2018-11-22T05:05:51.251Z,812.45
2018-11-22T05:06:51.257Z,812.46
2018-11-22T05:07:51.276Z,812.43
2018-11-22T05:08:51.653Z,812.41
2018-11-22T05:09:51.283Z,812.42
2018-11-22T05:10:51.289Z,812.41
2018-11-22T05:11:51.296Z,812.40
2018-11-22T05:12:51.307Z,812.43
2018-11-22T05:13:51.314Z,812.37
2018-11-22T05:14:51.320Z,812.35
2018-11-22T05:15:51.328Z,812.40
2018-11-22T05:16:51.336Z,812.37
2018-11-22T05:17:51.347Z,812.34
2018-11-22T05:18:51.356Z,812.35
2018-11-22T05:19:51.365Z,812.36
2018-11-22T05:20:51.370Z,812.36
2018-11-22T05:21:51.378Z,812.37
2018-11-22T05:22:51.387Z,812.39
2018-11-22T05:23:51.394Z,812.44
2018-11-22T05:24:51.400Z,812.44
2018-11-22T05:25:51.409Z,812.47
2018-11-22T05:26:51.419Z,812.46
2018-11-22T05:27:51.426Z,812.49
2018-11-22T05:28:51.435Z,812.48
2018-11-22T05:29:51.442Z,812.49
2018-11-22T05:30:51.455Z,812.53
2018-11-22T05:31:51.461Z,812.52
2018-11-22T05:32:51.470Z,812.53
2018-11-22T05:33:51.473Z,812.57
2018-11-22T05:34:51.483Z,812.58
2018-11-22T05:35:51.490Z,812.54
2018-11-22T05:36:51.500Z,812.52
2018-11-22T05:37:51.509Z,812.56
2018-11-22T05:38:51.513Z,812.54
2018-11-22T05:39:51.527Z,812.53
2018-11-22T05:40:51.531Z,812.54
2018-11-22T05:41:51.538Z,812.52
2018-11-22T05:42:51.548Z,812.51
2018-11-22T05:43:51.553Z,812.50
2018-11-22T05:44:51.571Z,812.49
2018-11-22T05:45:51.569Z,812.52
2018-11-22T05:46:51.580Z,812.53
2018-11-22T05:47:51.585Z,812.55
2018-11-22T05:48:51.594Z,812.52
2018-11-22T05:49:51.601Z,812.52
2018-11-22T05:50:51.610Z,812.52
2018-11-22T05:51:51.618Z,812.50
2018-11-22T05:52:51.628Z,812.54
2018-11-22T05:53:51.638Z,812.50
2018-11-22T05:54:51.641Z,812.53
2018-11-22T05:55:51.648Z,812.49
2018-11-22T05:56:51.661Z,812.51
2018-11-22T05:57:51.668Z,812.52
2018-11-22T05:58:51.672Z,812.52
2018-11-22T05:59:51.681Z,812.49
2018-11-22T06:00:51.693Z,812.51
2018-11-22T06:01:51.697Z,812.51
2018-11-22T06:02:51.704Z,812.50
2018-11-22T06:03:51.711Z,812.54
2018-11-22T06:04:51.724Z,812.52
2018-11-22T06:05:51.728Z,812.57
2018-11-22T06:06:51.737Z,812.58
2018-11-22T06:07:51.743Z,812.59
2018-11-22T06:08:51.754Z,812.61
2018-11-22T06:09:51.761Z,812.56
2018-11-22T06:10:51.769Z,812.58
2018-11-22T06:11:51.785Z,812.58
2018-11-22T06:12:51.782Z,812.59
2018-11-22T06:13:51.791Z,812.56
2018-11-22T06:14:51.799Z,812.58
2018-11-22T06:15:51.806Z,812.57
2018-11-22T06:16:51.813Z,812.56
2018-11-22T06:17:51.823Z,812.60
2018-11-22T06:18:51.829Z,812.63
2018-11-22T06:19:51.839Z,812.63
2018-11-22T06:20:51.844Z,812.65
2018-11-22T06:21:51.854Z,812.65
2018-11-22T06:22:51.860Z,812.68
2018-11-22T06:23:51.866Z,812.67
2018-11-22T06:24:51.876Z,812.65
2018-11-22T06:25:51.883Z,812.66
2018-11-22T06:26:51.893Z,812.63
2018-11-22T06:27:51.901Z,812.70
2018-11-22T06:28:51.909Z,812.66
2018-11-22T06:29:51.922Z,812.66
2018-11-22T06:30:51.923Z,812.69
2018-11-22T06:31:51.930Z,812.71
2018-11-22T06:32:51.943Z,812.75
2018-11-22T06:33:51.950Z,812.68
2018-11-22T06:34:51.955Z,812.77
2018-11-22T06:35:51.962Z,812.75
2018-11-22T06:36:51.969Z,812.74
2018-11-22T06:37:51.978Z,812.72
2018-11-22T06:38:51.989Z,812.74
2018-11-22T06:39:51.991Z,812.66
2018-11-22T06:40:51.999Z,812.66
2018-11-22T06:41:52.010Z,812.69
2018-11-22T06:42:52.016Z,812.73
2018-11-22T06:43:52.022Z,812.74
2018-11-22T06:44:52.028Z,812.76
2018-11-22T06:45:52.037Z,812.76
2018-11-22T06:46:52.044Z,812.74
2018-11-22T06:47:52.051Z,812.78
2018-11-22T06:48:52.060Z,812.76
2018-11-22T06:49:52.067Z,812.73
2018-11-22T06:50:52.078Z,812.77
2018-11-22T06:51:52.081Z,812.77
2018-11-22T06:52:52.089Z,812.74
2018-11-22T06:53:52.098Z,812.79
2018-11-22T06:54:52.105Z,812.75
2018-11-22T06:55:52.127Z,812.75
2018-11-22T06:56:52.122Z,812.77
2018-11-22T06:57:52.127Z,812.75
2018-11-22T06:58:52.188Z,812.77
2018-11-22T06:59:52.143Z,812.77
2018-11-22T07:00:52.151Z,812.78
2018-11-22T07:01:52.158Z,812.79
2018-11-22T07:02:52.165Z,812.80
2018-11-22T07:03:52.171Z,812.78
2018-11-22T07:04:52.178Z,812.77
2018-11-22T07:05:52.186Z,812.77
2018-11-22T07:06:52.196Z,812.78
2018-11-22T07:07:52.201Z,812.87
2018-11-22T07:08:52.210Z,812.86
2018-11-22T07:09:52.220Z,812.88
2018-11-22T07:10:52.227Z,812.91
2018-11-22T07:11:52.231Z,812.87
2018-11-22T07:12:52.238Z,812.90
2018-11-22T07:13:52.248Z,812.86
2018-11-22T07:14:52.252Z,812.89
2018-11-22T07:15:52.259Z,812.93
2018-11-22T07:16:52.266Z,812.94
2018-11-22T07:17:52.277Z,812.92
2018-11-22T07:18:52.283Z,812.93
2018-11-22T07:19:52.289Z,812.94
2018-11-22T07:20:52.298Z,812.92
2018-11-22T07:21:52.304Z,812.93
2018-11-22T07:22:52.315Z,812.91
2018-11-22T07:23:52.318Z,812.92
2018-11-22T07:24:52.331Z,812.89
2018-11-22T07:25:52.335Z,812.88
2018-11-22T07:26:52.341Z,812.94
2018-11-22T07:27:52.352Z,812.87
2018-11-22T07:28:52.357Z,812.92
2018-11-22T07:29:52.365Z,812.93
2018-11-22T07:30:52.371Z,812.95
2018-11-22T07:31:52.378Z,812.94
2018-11-22T07:32:52.387Z,812.97
2018-11-22T07:33:52.393Z,812.99
2018-11-22T07:34:52.399Z,812.98
2018-11-22T07:35:52.408Z,812.98
2018-11-22T07:36:52.415Z,812.95
2018-11-22T07:37:52.422Z,812.99
2018-11-22T07:38:52.428Z,813.01
2018-11-22T07:39:52.437Z,812.99
2018-11-22T07:40:52.444Z,813.00
2018-11-22T07:41:52.451Z,813.00
2018-11-22T07:42:52.461Z,813.04
2018-11-22T07:43:52.466Z,813.02
2018-11-22T07:44:52.478Z,813.05
2018-11-22T07:45:52.483Z,813.01
2018-11-22T07:46:52.490Z,813.07
2018-11-22T07:47:52.494Z,813.07
2018-11-22T07:48:52.501Z,813.09
2018-11-22T07:49:52.510Z,813.06
2018-11-22T07:50:52.520Z,813.02
2018-11-22T07:51:52.524Z,813.12
2018-11-22T07:52:56.029Z,813.12
2018-11-22T07:53:52.540Z,813.12
2018-11-22T07:54:52.550Z,813.08
2018-11-22T07:55:52.554Z,813.10
2018-11-22T07:56:52.563Z,813.09
2018-11-22T07:57:52.569Z,813.05
2018-11-22T07:58:52.578Z,813.04
2018-11-22T07:59:52.584Z,813.01
2018-11-22T08:00:52.592Z,813.05
2018-11-22T08:01:52.601Z,813.04
2018-11-22T08:02:52.607Z,813.07
2018-11-22T08:03:52.613Z,813.07
2018-11-22T08:04:52.623Z,813.09
2018-11-22T08:05:52.630Z,813.09
2018-11-22T08:06:52.637Z,813.11
2018-11-22T08:07:52.643Z,813.11
2018-11-22T08:08:52.651Z,813.13
2018-11-22T08:09:52.662Z,813.14
2018-11-22T08:10:52.667Z,813.14
2018-11-22T08:11:52.674Z,813.14
2018-11-22T08:12:52.846Z,813.14
2018-11-22T08:13:52.688Z,813.19
2018-11-22T08:14:52.698Z,813.19
2018-11-22T08:15:52.704Z,813.22
2018-11-22T08:16:52.712Z,813.20
2018-11-22T08:17:52.718Z,813.25
2018-11-22T08:18:52.727Z,813.25
2018-11-22T08:19:52.733Z,813.24
2018-11-22T08:20:52.743Z,813.25
2018-11-22T08:21:52.750Z,813.25
2018-11-22T08:22:52.760Z,813.26
2018-11-22T08:23:52.767Z,813.25
2018-11-22T08:24:52.772Z,813.26
2018-11-22T08:25:52.787Z,813.28
2018-11-22T08:26:52.787Z,813.26
2018-11-22T08:27:52.797Z,813.24
2018-11-22T08:28:52.804Z,813.20
2018-11-22T08:29:52.812Z,813.27
2018-11-22T08:30:52.819Z,813.28
2018-11-22T08:31:52.827Z,813.28
2018-11-22T08:32:52.835Z,813.27
2018-11-22T08:33:52.844Z,813.30
2018-11-22T08:34:52.851Z,813.33
2018-11-22T08:35:52.858Z,813.38
2018-11-22T08:36:52.866Z,813.35
2018-11-22T08:37:52.875Z,813.35
2018-11-22T08:38:52.883Z,813.33
2018-11-22T08:39:52.894Z,813.36
2018-11-22T08:40:52.903Z,813.37
2018-11-22T08:41:52.910Z,813.40
2018-11-22T08:42:55.237Z,813.39
2018-11-22T08:43:52.927Z,813.40
2018-11-22T08:44:52.931Z,813.42
2018-11-22T08:45:52.945Z,813.45
2018-11-22T08:46:52.948Z,813.43
2018-11-22T08:47:52.968Z,813.39
2018-11-22T08:48:52.966Z,813.42
2018-11-22T08:49:52.987Z,813.45
2018-11-22T08:50:52.980Z,813.46
2018-11-22T08:51:52.988Z,813.46
2018-11-22T08:52:52.999Z,813.46
2018-11-22T08:53:53.013Z,813.47
2018-11-22T08:54:53.015Z,813.50
2018-11-22T08:55:53.022Z,813.53
2018-11-22T08:56:53.029Z,813.50
2018-11-22T08:57:53.038Z,813.52
2018-11-22T08:58:53.049Z,813.52
2018-11-22T08:59:53.059Z,813.55
2018-11-22T09:00:53.065Z,813.53
2018-11-22T09:01:53.072Z,813.56
2018-11-22T09:02:53.080Z,813.53
2018-11-22T09:03:53.086Z,813.61
2018-11-22T09:04:53.096Z,813.52
2018-11-22T09:05:53.107Z,813.61
2018-11-22T09:06:53.120Z,813.60
2018-11-22T09:07:53.120Z,813.63
2018-11-22T09:08:53.131Z,813.68
2018-11-22T09:09:53.139Z,813.69
2018-11-22T09:10:53.151Z,813.63
2018-11-22T09:11:53.154Z,813.69
2018-11-22T09:12:53.163Z,813.66
2018-11-22T09:13:53.171Z,813.67
2018-11-22T09:14:53.182Z,813.71
2018-11-22T09:15:53.188Z,813.72
2018-11-22T09:16:53.197Z,813.73
2018-11-22T09:17:53.206Z,813.73
2018-11-22T09:18:53.216Z,813.66
2018-11-22T09:19:53.224Z,813.73
2018-11-22T09:20:53.242Z,813.75
2018-11-22T09:21:53.241Z,813.76
2018-11-22T09:22:53.248Z,813.75
2018-11-22T09:23:53.257Z,813.74
2018-11-22T09:24:53.268Z,813.76
2018-11-22T09:25:53.279Z,813.77
2018-11-22T09:26:53.290Z,813.76
2018-11-22T09:27:53.296Z,813.81
2018-11-22T09:28:53.308Z,813.77
2018-11-22T09:29:53.314Z,813.77
2018-11-22T09:30:53.334Z,813.81
2018-11-22T09:31:53.841Z,813.84
2018-11-22T09:32:53.340Z,813.82
2018-11-22T09:33:53.350Z,813.85
2018-11-22T09:34:53.358Z,813.86
2018-11-22T09:35:53.369Z,813.87
2018-11-22T09:36:53.374Z,813.85
2018-11-22T09:37:53.384Z,813.85
2018-11-22T09:38:53.394Z,813.88
2018-11-22T09:39:53.402Z,813.86
2018-11-22T09:40:53.411Z,813.89
2018-11-22T09:41:53.423Z,813.86
2018-11-22T09:42:53.435Z,813.86
2018-11-22T09:43:53.442Z,813.87
2018-11-22T09:44:53.452Z,813.84
2018-11-22T09:45:53.461Z,813.85
2018-11-22T09:46:53.470Z,813.85
2018-11-22T09:47:53.478Z,813.88
2018-11-22T09:48:53.491Z,813.87
2018-11-22T09:49:53.498Z,813.82
2018-11-22T09:50:53.511Z,813.86
2018-11-22T09:51:53.520Z,813.79
2018-11-22T09:52:53.528Z,813.82
2018-11-22T09:53:53.542Z,813.80
2018-11-22T09:54:53.548Z,813.79
2018-11-22T09:55:53.556Z,813.77
2018-11-22T09:56:53.568Z,813.76
2018-11-22T09:57:53.583Z,813.79
2018-11-22T09:58:53.594Z,813.82
2018-11-22T09:59:53.599Z,813.78
2018-11-22T10:00:53.608Z,813.79
2018-11-22T10:01:53.619Z,813.81
2018-11-22T10:02:53.638Z,813.81
2018-11-22T10:03:53.639Z,813.83
2018-11-22T10:04:53.795Z,813.86
2018-11-22T10:05:53.727Z,813.82
2018-11-22T10:06:53.671Z,813.85
2018-11-22T10:07:53.682Z,813.87
2018-11-22T10:08:53.690Z,813.89
2018-11-22T10:09:53.702Z,813.91
2018-11-22T10:10:53.715Z,813.91
2018-11-22T10:11:53.724Z,813.90
2018-11-22T10:12:53.733Z,813.91
2018-11-22T10:13:53.745Z,813.90
2018-11-22T10:14:53.757Z,813.90
2018-11-22T10:15:53.766Z,813.94
2018-11-22T10:16:53.791Z,813.93
2018-11-22T10:17:53.788Z,813.93
2018-11-22T10:18:53.798Z,813.90
2018-11-22T10:19:53.808Z,813.97
2018-11-22T10:20:53.821Z,813.96
2018-11-22T10:21:53.834Z,813.95
2018-11-22T10:22:53.841Z,813.93
2018-11-22T10:23:53.928Z,813.93
2018-11-22T10:24:53.867Z,813.90
2018-11-22T10:25:53.876Z,813.89
2018-11-22T10:26:53.888Z,813.93
2018-11-22T10:27:53.902Z,813.89
2018-11-22T10:28:53.913Z,813.88
2018-11-22T10:29:53.925Z,813.89
2018-11-22T10:30:53.936Z,813.90
2018-11-22T10:31:53.945Z,813.92
2018-11-22T10:32:53.954Z,813.88
2018-11-22T10:33:53.971Z,813.91
2018-11-22T10:34:53.982Z,813.91
2018-11-22T10:35:53.990Z,813.94
2018-11-22T10:36:54.007Z,813.89
2018-11-22T10:37:54.102Z,813.92
2018-11-22T10:38:54.030Z,813.94
2018-11-22T10:39:54.037Z,813.96
2018-11-22T10:40:54.062Z,813.93
2018-11-22T10:41:54.059Z,813.98
2018-11-22T10:42:54.072Z,813.95
2018-11-22T10:43:54.082Z,813.97
2018-11-22T10:44:54.097Z,813.97
2018-11-22T10:45:54.107Z,813.95
2018-11-22T10:46:54.121Z,813.97
2018-11-22T10:47:54.131Z,814.00
2018-11-22T10:48:54.147Z,814.02
2018-11-22T10:49:54.155Z,813.96
2018-11-22T10:50:54.169Z,813.99
2018-11-22T10:51:54.177Z,814.03
2018-11-22T10:52:54.191Z,813.97
2018-11-22T10:53:54.201Z,813.99
2018-11-22T10:54:54.214Z,813.99
2018-11-22T10:55:54.227Z,814.00
2018-11-22T10:56:54.239Z,814.04
2018-11-22T10:57:54.268Z,814.07
2018-11-22T10:58:54.261Z,814.04
2018-11-22T10:59:54.281Z,814.07
2018-11-22T11:00:54.286Z,814.04
2018-11-22T11:01:54.299Z,814.05
2018-11-22T11:02:54.310Z,813.98
2018-11-22T11:03:54.322Z,814.02
2018-11-22T11:04:54.334Z,813.98
2018-11-22T11:05:54.347Z,814.01
2018-11-22T11:06:54.366Z,813.99
2018-11-22T11:07:54.369Z,813.99
2018-11-22T11:08:54.383Z,814.03
2018-11-22T11:09:54.396Z,814.02
2018-11-22T11:10:54.405Z,814.02
2018-11-22T11:11:54.415Z,814.01
2018-11-22T11:12:54.432Z,813.97
2018-11-22T11:13:54.442Z,813.95
2018-11-22T11:14:54.481Z,813.96
2018-11-22T11:15:54.464Z,813.93
2018-11-22T11:16:54.477Z,814.00
2018-11-22T11:17:54.488Z,813.97
2018-11-22T11:18:54.505Z,813.95
2018-11-22T11:19:54.518Z,813.97
2018-11-22T11:20:54.525Z,813.96
2018-11-22T11:21:54.541Z,813.96
2018-11-22T11:22:54.554Z,813.94
2018-11-22T11:23:54.567Z,813.92
2018-11-22T11:24:54.623Z,813.92
2018-11-22T11:25:54.588Z,813.92
2018-11-22T11:26:54.614Z,813.94
2018-11-22T11:27:54.612Z,813.91
2018-11-22T11:28:54.624Z,813.87
2018-11-22T11:29:54.637Z,813.89
2018-11-22T11:30:54.696Z,813.87
2018-11-22T11:31:54.675Z,813.90
2018-11-22T11:32:54.675Z,813.89
2018-11-22T11:33:54.688Z,813.92
2018-11-22T11:34:54.708Z,813.93
2018-11-22T11:35:54.711Z,813.89
2018-11-22T11:36:54.726Z,813.92
2018-11-22T11:37:54.738Z,813.92
2018-11-22T11:38:54.752Z,813.90
2018-11-22T11:40:00.575Z,813.85
2018-11-22T11:40:54.779Z,813.90
2018-11-22T11:41:54.788Z,813.86
2018-11-22T11:42:54.802Z,813.86
2018-11-22T11:43:54.812Z,813.83
2018-11-22T11:44:54.826Z,813.86
2018-11-22T11:45:54.839Z,813.85
2018-11-22T11:46:54.853Z,813.83
2018-11-22T11:47:54.863Z,813.81
2018-11-22T11:48:54.879Z,813.80
2018-11-22T11:49:54.889Z,813.77
2018-11-22T11:50:54.901Z,813.82
2018-11-22T11:51:54.920Z,813.81
2018-11-22T11:52:54.928Z,813.79
2018-11-22T11:53:54.941Z,813.80
2018-11-22T11:54:54.953Z,813.80
2018-11-22T11:55:54.964Z,813.79
2018-11-22T11:56:54.977Z,813.77
2018-11-22T11:57:55.001Z,813.81
2018-11-22T11:58:55.005Z,813.78
2018-11-22T11:59:55.018Z,813.77
2018-11-22T12:00:55.032Z,813.78
2018-11-22T12:01:55.043Z,813.77
2018-11-22T12:02:55.058Z,813.77
2018-11-22T12:03:55.067Z,813.80
2018-11-22T12:04:55.081Z,813.81
2018-11-22T12:05:55.096Z,813.79
2018-11-22T12:06:55.108Z,813.81
2018-11-22T12:07:55.121Z,813.83
2018-11-22T12:08:55.133Z,813.76
2018-11-22T12:09:56.318Z,813.76
2018-11-22T12:10:55.160Z,813.75
2018-11-22T12:11:55.177Z,813.81
2018-11-22T12:12:55.187Z,813.81
2018-11-22T12:13:55.199Z,813.79
2018-11-22T12:14:55.212Z,813.76
2018-11-22T12:15:55.224Z,813.78
2018-11-22T12:16:55.237Z,813.79
2018-11-22T12:17:55.250Z,813.78
2018-11-22T12:18:55.265Z,813.71
2018-11-22T12:19:55.284Z,813.73
2018-11-22T12:20:55.290Z,813.77
2018-11-22T12:21:55.305Z,813.72
2018-11-22T12:22:55.319Z,813.77
2018-11-22T12:23:55.332Z,813.77
2018-11-22T12:24:55.350Z,813.75
2018-11-22T12:25:55.361Z,813.74
2018-11-22T12:26:55.375Z,813.76
2018-11-22T12:27:55.390Z,813.81
2018-11-22T12:28:55.402Z,813.80